sensor_id;sensor_type;location;lat;lon;timestamp;pressure;altitude;pressure_sealevel;temperature;humidity
49463;BME280;35357;51.722;0.500;2022-07-04T00:01:54;101852.58;;;17.93;58.35
49463;BME280;35357;51.722;0.500;2022-07-04T00:04:21;101854.56;;;17.79;57.81
49463;BME280;35357;51.722;0.500;2022-07-04T00:06:48;101850.23;;;18.19;57.00
49463;BME280;35357;51.722;0.500;2022-07-04T00:09:15;101850.22;;;18.18;56.56
49463;BME280;35357;51.722;0.500;2022-07-04T00:11:42;101849.56;;;18.02;56.26
49463;BME280;35357;51.722;0.500;2022-07-04T00:14:09;101850.04;;;17.87;56.77
49463;BME280;35357;51.722;0.500;2022-07-04T00:16:36;101850.65;;;18.35;56.05
49463;BME280;35357;51.722;0.500;2022-07-04T00:19:03;101843.46;;;17.42;58.25
49463;BME280;35357;51.722;0.500;2022-07-04T00:21:31;101843.96;;;17.67;57.12
49463;BME280;35357;51.722;0.500;2022-07-04T00:24:00;101842.99;;;18.18;56.13
49463;BME280;35357;51.722;0.500;2022-07-04T00:26:27;101846.68;;;17.39;56.76
49463;BME280;35357;51.722;0.500;2022-07-04T00:28:55;101849.71;;;18.07;56.32
49463;BME280;35357;51.722;0.500;2022-07-04T00:31:22;101848.98;;;17.71;56.31
49463;BME280;35357;51.722;0.500;2022-07-04T00:33:50;101848.27;;;17.91;56.24
49463;BME280;35357;51.722;0.500;2022-07-04T00:36:18;101849.56;;;17.68;56.83
49463;BME280;35357;51.722;0.500;2022-07-04T00:38:44;101853.29;;;17.67;56.74
49463;BME280;35357;51.722;0.500;2022-07-04T00:41:11;101856.86;;;17.73;56.74
49463;BME280;35357;51.722;0.500;2022-07-04T00:43:39;101854.63;;;18.03;56.03
49463;BME280;35357;51.722;0.500;2022-07-04T00:46:06;101854.90;;;17.83;55.90
49463;BME280;35357;51.722;0.500;2022-07-04T00:48:33;101853.92;;;18.14;55.58
49463;BME280;35357;51.722;0.500;2022-07-04T00:51:01;101854.61;;;18.21;55.23
49463;BME280;35357;51.722;0.500;2022-07-04T00:53:28;101856.09;;;17.81;54.84
49463;BME280;35357;51.722;0.500;2022-07-04T00:55:56;101857.44;;;18.23;54.52
49463;BME280;35357;51.722;0.500;2022-07-04T00:58:23;101856.67;;;18.22;54.38
49463;BME280;35357;51.722;0.500;2022-07-04T01:00:50;101852.64;;;18.35;53.78
49463;BME280;35357;51.722;0.500;2022-07-04T01:03:18;101852.43;;;18.57;54.13
49463;BME280;35357;51.722;0.500;2022-07-04T01:05:46;101848.56;;;18.09;53.95
49463;BME280;35357;51.722;0.500;2022-07-04T01:08:13;101853.66;;;18.45;54.11
49463;BME280;35357;51.722;0.500;2022-07-04T01:10:41;101841.60;;;18.50;53.90
49463;BME280;35357;51.722;0.500;2022-07-04T01:13:18;101834.43;;;18.25;53.71
49463;BME280;35357;51.722;0.500;2022-07-04T01:15:46;101833.64;;;18.33;53.36
49463;BME280;35357;51.722;0.500;2022-07-04T01:18:13;101838.18;;;18.03;54.26
49463;BME280;35357;51.722;0.500;2022-07-04T01:20:41;101839.95;;;18.09;54.09
49463;BME280;35357;51.722;0.500;2022-07-04T01:23:09;101842.41;;;17.98;54.20
49463;BME280;35357;51.722;0.500;2022-07-04T01:25:36;101841.12;;;18.03;53.72
49463;BME280;35357;51.722;0.500;2022-07-04T01:28:04;101843.47;;;18.08;53.64
49463;BME280;35357;51.722;0.500;2022-07-04T01:30:32;101843.63;;;17.96;53.70
49463;BME280;35357;51.722;0.500;2022-07-04T01:33:00;101844.42;;;17.97;53.54
49463;BME280;35357;51.722;0.500;2022-07-04T01:35:28;101842.72;;;17.99;53.43
49463;BME280;35357;51.722;0.500;2022-07-04T01:37:55;101845.08;;;18.01;53.55
49463;BME280;35357;51.722;0.500;2022-07-04T01:40:23;101844.76;;;18.04;53.56
49463;BME280;35357;51.722;0.500;2022-07-04T01:42:51;101839.66;;;18.20;53.07
49463;BME280;35357;51.722;0.500;2022-07-04T01:45:19;101837.98;;;18.09;53.08
49463;BME280;35357;51.722;0.500;2022-07-04T01:47:46;101835.63;;;18.07;53.05
49463;BME280;35357;51.722;0.500;2022-07-04T01:50:14;101832.21;;;17.87;52.96
49463;BME280;35357;51.722;0.500;2022-07-04T01:52:42;101828.83;;;18.02;53.08
49463;BME280;35357;51.722;0.500;2022-07-04T01:55:10;101830.58;;;17.91;53.04
49463;BME280;35357;51.722;0.500;2022-07-04T01:57:38;101834.19;;;17.88;52.88
49463;BME280;35357;51.722;0.500;2022-07-04T02:00:07;101833.04;;;17.52;52.99
49463;BME280;35357;51.722;0.500;2022-07-04T02:02:35;101829.06;;;17.73;52.80
49463;BME280;35357;51.722;0.500;2022-07-04T02:05:03;101828.50;;;17.66;52.80
49463;BME280;35357;51.722;0.500;2022-07-04T02:07:30;101829.45;;;17.53;53.40
49463;BME280;35357;51.722;0.500;2022-07-04T02:09:57;101830.96;;;17.49;53.42
49463;BME280;35357;51.722;0.500;2022-07-04T02:12:24;101832.75;;;17.46;53.39
49463;BME280;35357;51.722;0.500;2022-07-04T02:14:52;101831.46;;;17.27;53.79
49463;BME280;35357;51.722;0.500;2022-07-04T02:17:20;101831.30;;;17.11;54.44
49463;BME280;35357;51.722;0.500;2022-07-04T02:19:47;101828.12;;;17.10;54.62
49463;BME280;35357;51.722;0.500;2022-07-04T02:22:15;101824.66;;;16.42;57.03
49463;BME280;35357;51.722;0.500;2022-07-04T02:24:43;101829.12;;;16.81;56.50
49463;BME280;35357;51.722;0.500;2022-07-04T02:27:10;101827.67;;;17.11;56.08
49463;BME280;35357;51.722;0.500;2022-07-04T02:29:39;101821.52;;;16.77;57.37
49463;BME280;35357;51.722;0.500;2022-07-04T02:32:07;101816.71;;;16.57;57.86
49463;BME280;35357;51.722;0.500;2022-07-04T02:34:34;101819.35;;;16.27;59.40
49463;BME280;35357;51.722;0.500;2022-07-04T02:37:01;101815.83;;;15.86;61.09
49463;BME280;35357;51.722;0.500;2022-07-04T02:39:28;101814.37;;;16.06;60.36
49463;BME280;35357;51.722;0.500;2022-07-04T02:41:54;101813.45;;;16.50;59.57
49463;BME280;35357;51.722;0.500;2022-07-04T02:44:21;101805.01;;;16.58;58.76
49463;BME280;35357;51.722;0.500;2022-07-04T02:46:48;101807.30;;;16.48;58.24
49463;BME280;35357;51.722;0.500;2022-07-04T02:49:15;101807.94;;;15.94;60.62
49463;BME280;35357;51.722;0.500;2022-07-04T02:51:42;101807.04;;;16.15;60.99
49463;BME280;35357;51.722;0.500;2022-07-04T02:54:09;101803.52;;;15.86;60.70
49463;BME280;35357;51.722;0.500;2022-07-04T02:56:36;101808.60;;;15.68;60.78
49463;BME280;35357;51.722;0.500;2022-07-04T02:59:03;101810.75;;;15.88;59.95
49463;BME280;35357;51.722;0.500;2022-07-04T03:01:30;101811.04;;;16.00;59.86
49463;BME280;35357;51.722;0.500;2022-07-04T03:03:58;101811.66;;;16.01;60.33
49463;BME280;35357;51.722;0.500;2022-07-04T03:06:26;101812.34;;;16.22;59.09
49463;BME280;35357;51.722;0.500;2022-07-04T03:08:53;101814.47;;;16.49;58.88
49463;BME280;35357;51.722;0.500;2022-07-04T03:11:20;101811.03;;;15.96;59.10
49463;BME280;35357;51.722;0.500;2022-07-04T03:13:47;101813.24;;;16.18;58.84
49463;BME280;35357;51.722;0.500;2022-07-04T03:16:15;101818.53;;;16.53;58.22
49463;BME280;35357;51.722;0.500;2022-07-04T03:18:42;101812.46;;;16.58;57.61
49463;BME280;35357;51.722;0.500;2022-07-04T03:21:09;101806.29;;;16.49;57.63
49463;BME280;35357;51.722;0.500;2022-07-04T03:23:37;101806.93;;;16.64;57.67
49463;BME280;35357;51.722;0.500;2022-07-04T03:26:03;101809.93;;;16.40;57.71
49463;BME280;35357;51.722;0.500;2022-07-04T03:28:30;101806.07;;;16.40;57.40
49463;BME280;35357;51.722;0.500;2022-07-04T03:30:58;101802.73;;;16.32;57.54
49463;BME280;35357;51.722;0.500;2022-07-04T03:33:26;101799.64;;;16.11;57.70
49463;BME280;35357;51.722;0.500;2022-07-04T03:35:53;101801.84;;;16.28;57.75
49463;BME280;35357;51.722;0.500;2022-07-04T03:38:20;101804.74;;;16.28;57.67
49463;BME280;35357;51.722;0.500;2022-07-04T03:40:47;101801.17;;;16.23;57.53
49463;BME280;35357;51.722;0.500;2022-07-04T03:43:14;101802.75;;;16.33;57.81
49463;BME280;35357;51.722;0.500;2022-07-04T03:45:41;101809.32;;;16.36;57.54
49463;BME280;35357;51.722;0.500;2022-07-04T03:48:08;101814.78;;;16.11;57.60
49463;BME280;35357;51.722;0.500;2022-07-04T03:50:36;101818.22;;;16.32;57.67
49463;BME280;35357;51.722;0.500;2022-07-04T03:53:02;101828.16;;;16.15;58.01
49463;BME280;35357;51.722;0.500;2022-07-04T03:55:29;101827.97;;;16.29;57.59
49463;BME280;35357;51.722;0.500;2022-07-04T03:57:56;101830.87;;;16.51;57.72
49463;BME280;35357;51.722;0.500;2022-07-04T04:00:24;101835.02;;;16.03;57.67
49463;BME280;35357;51.722;0.500;2022-07-04T04:02:51;101842.99;;;16.13;57.26
49463;BME280;35357;51.722;0.500;2022-07-04T04:05:17;101848.25;;;16.33;57.30
49463;BME280;35357;51.722;0.500;2022-07-04T04:07:44;101848.52;;;16.33;57.27
49463;BME280;35357;51.722;0.500;2022-07-04T04:10:11;101844.18;;;16.11;57.30
49463;BME280;35357;51.722;0.500;2022-07-04T04:12:38;101848.89;;;16.05;57.77
49463;BME280;35357;51.722;0.500;2022-07-04T04:15:06;101855.82;;;16.06;57.73
49463;BME280;35357;51.722;0.500;2022-07-04T04:17:34;101856.86;;;16.13;57.35
49463;BME280;35357;51.722;0.500;2022-07-04T04:20:01;101858.72;;;16.27;57.39
49463;BME280;35357;51.722;0.500;2022-07-04T04:22:29;101859.58;;;16.37;57.35
49463;BME280;35357;51.722;0.500;2022-07-04T04:24:57;101866.65;;;16.08;57.26
49463;BME280;35357;51.722;0.500;2022-07-04T04:27:25;101865.70;;;16.14;57.51
49463;BME280;35357;51.722;0.500;2022-07-04T04:29:52;101864.87;;;16.05;57.45
49463;BME280;35357;51.722;0.500;2022-07-04T04:32:19;101868.24;;;16.00;57.67
49463;BME280;35357;51.722;0.500;2022-07-04T04:34:46;101866.98;;;16.10;57.87
49463;BME280;35357;51.722;0.500;2022-07-04T04:37:14;101867.64;;;16.28;57.50
49463;BME280;35357;51.722;0.500;2022-07-04T04:39:41;101875.17;;;16.07;57.02
49463;BME280;35357;51.722;0.500;2022-07-04T04:42:08;101878.16;;;16.04;58.39
49463;BME280;35357;51.722;0.500;2022-07-04T04:44:36;101882.13;;;15.98;58.73
49463;BME280;35357;51.722;0.500;2022-07-04T04:47:03;101883.59;;;16.04;59.10
49463;BME280;35357;51.722;0.500;2022-07-04T04:49:30;101887.11;;;15.03;61.64
49463;BME280;35357;51.722;0.500;2022-07-04T04:51:57;101884.85;;;15.41;61.39
49463;BME280;35357;51.722;0.500;2022-07-04T04:54:24;101881.40;;;15.54;60.46
49463;BME280;35357;51.722;0.500;2022-07-04T04:56:51;101882.19;;;15.13;62.27
49463;BME280;35357;51.722;0.500;2022-07-04T04:59:19;101880.09;;;14.74;64.56
49463;BME280;35357;51.722;0.500;2022-07-04T05:01:46;101878.25;;;14.53;63.92
49463;BME280;35357;51.722;0.500;2022-07-04T05:04:13;101881.68;;;14.85;63.64
49463;BME280;35357;51.722;0.500;2022-07-04T05:06:40;101876.68;;;14.76;63.37
49463;BME280;35357;51.722;0.500;2022-07-04T05:09:07;101871.73;;;14.95;64.03
49463;BME280;35357;51.722;0.500;2022-07-04T05:11:34;101875.87;;;15.62;61.70
49463;BME280;35357;51.722;0.500;2022-07-04T05:14:02;101878.42;;;15.75;61.38
49463;BME280;35357;51.722;0.500;2022-07-04T05:16:29;101880.91;;;15.31;62.61
49463;BME280;35357;51.722;0.500;2022-07-04T05:18:57;101880.94;;;15.55;62.79
49463;BME280;35357;51.722;0.500;2022-07-04T05:21:23;101880.06;;;15.99;61.43
49463;BME280;35357;51.722;0.500;2022-07-04T05:23:50;101881.64;;;16.10;60.88
49463;BME280;35357;51.722;0.500;2022-07-04T05:26:17;101875.62;;;16.40;60.02
49463;BME280;35357;51.722;0.500;2022-07-04T05:28:44;101877.89;;;16.23;60.22
49463;BME280;35357;51.722;0.500;2022-07-04T05:31:11;101870.61;;;16.76;58.39
49463;BME280;35357;51.722;0.500;2022-07-04T05:33:38;101874.54;;;16.75;58.31
49463;BME280;35357;51.722;0.500;2022-07-04T05:36:06;101870.30;;;16.83;57.84
49463;BME280;35357;51.722;0.500;2022-07-04T05:38:33;101869.61;;;17.07;56.59
49463;BME280;35357;51.722;0.500;2022-07-04T05:41:01;101865.10;;;17.10;56.31
49463;BME280;35357;51.722;0.500;2022-07-04T05:43:29;101864.06;;;16.56;57.54
49463;BME280;35357;51.722;0.500;2022-07-04T05:45:57;101858.42;;;17.10;57.15
49463;BME280;35357;51.722;0.500;2022-07-04T05:48:24;101864.96;;;17.75;55.54
49463;BME280;35357;51.722;0.500;2022-07-04T05:50:51;101870.98;;;17.58;55.07
49463;BME280;35357;51.722;0.500;2022-07-04T05:53:19;101872.27;;;17.02;56.25
49463;BME280;35357;51.722;0.500;2022-07-04T05:55:46;101876.23;;;16.81;57.60
49463;BME280;35357;51.722;0.500;2022-07-04T05:58:12;101876.39;;;16.45;58.76
49463;BME280;35357;51.722;0.500;2022-07-04T06:00:39;101873.69;;;16.48;59.12
49463;BME280;35357;51.722;0.500;2022-07-04T06:03:07;101869.14;;;16.93;57.86
49463;BME280;35357;51.722;0.500;2022-07-04T06:05:34;101866.13;;;17.47;56.26
49463;BME280;35357;51.722;0.500;2022-07-04T06:08:00;101868.81;;;17.31;56.42
49463;BME280;35357;51.722;0.500;2022-07-04T06:10:27;101868.63;;;16.97;56.61
49463;BME280;35357;51.722;0.500;2022-07-04T06:12:55;101867.24;;;16.24;59.41
49463;BME280;35357;51.722;0.500;2022-07-04T06:15:23;101863.33;;;16.48;58.64
49463;BME280;35357;51.722;0.500;2022-07-04T06:17:49;101867.01;;;17.10;56.41
49463;BME280;35357;51.722;0.500;2022-07-04T06:20:16;101874.86;;;17.20;56.04
49463;BME280;35357;51.722;0.500;2022-07-04T06:22:46;101871.89;;;17.60;55.75
49463;BME280;35357;51.722;0.500;2022-07-04T06:25:15;101868.28;;;17.65;56.02
49463;BME280;35357;51.722;0.500;2022-07-04T06:27:44;101864.44;;;17.40;55.96
49463;BME280;35357;51.722;0.500;2022-07-04T06:30:13;101861.23;;;16.77;58.30
49463;BME280;35357;51.722;0.500;2022-07-04T06:32:43;101867.59;;;17.43;57.13
49463;BME280;35357;51.722;0.500;2022-07-04T06:35:11;101865.39;;;16.43;59.27
49463;BME280;35357;51.722;0.500;2022-07-04T06:37:38;101864.90;;;15.72;60.81
49463;BME280;35357;51.722;0.500;2022-07-04T06:40:07;101860.35;;;15.65;61.85
49463;BME280;35357;51.722;0.500;2022-07-04T06:42:34;101859.58;;;16.18;60.76
49463;BME280;35357;51.722;0.500;2022-07-04T06:45:01;101859.99;;;16.81;59.22
49463;BME280;35357;51.722;0.500;2022-07-04T06:47:27;101865.52;;;16.07;60.19
49463;BME280;35357;51.722;0.500;2022-07-04T06:49:54;101867.78;;;15.99;60.76
49463;BME280;35357;51.722;0.500;2022-07-04T06:52:21;101870.89;;;16.14;60.88
49463;BME280;35357;51.722;0.500;2022-07-04T06:54:48;101867.91;;;14.93;64.63
49463;BME280;35357;51.722;0.500;2022-07-04T06:57:15;101864.23;;;15.82;62.75
49463;BME280;35357;51.722;0.500;2022-07-04T06:59:42;101871.68;;;16.03;61.07
49463;BME280;35357;51.722;0.500;2022-07-04T07:02:09;101875.03;;;15.55;63.06
49463;BME280;35357;51.722;0.500;2022-07-04T07:04:36;101877.24;;;15.18;64.11
49463;BME280;35357;51.722;0.500;2022-07-04T07:07:03;101880.96;;;15.20;64.31
49463;BME280;35357;51.722;0.500;2022-07-04T07:09:30;101876.78;;;15.81;61.28
49463;BME280;35357;51.722;0.500;2022-07-04T07:11:57;101874.86;;;16.20;60.51
49463;BME280;35357;51.722;0.500;2022-07-04T07:14:24;101869.89;;;17.09;58.18
49463;BME280;35357;51.722;0.500;2022-07-04T07:16:51;101869.44;;;17.43;56.35
49463;BME280;35357;51.722;0.500;2022-07-04T07:19:18;101868.33;;;16.13;59.59
49463;BME280;35357;51.722;0.500;2022-07-04T07:21:45;101866.56;;;17.24;56.64
49463;BME280;35357;51.722;0.500;2022-07-04T07:24:12;101863.05;;;17.84;55.02
49463;BME280;35357;51.722;0.500;2022-07-04T07:26:39;101862.70;;;17.57;54.31
49463;BME280;35357;51.722;0.500;2022-07-04T07:29:06;101861.34;;;18.61;52.32
49463;BME280;35357;51.722;0.500;2022-07-04T07:31:34;101865.69;;;17.73;53.24
49463;BME280;35357;51.722;0.500;2022-07-04T07:34:01;101861.53;;;17.38;54.01
49463;BME280;35357;51.722;0.500;2022-07-04T07:36:27;101857.40;;;16.81;55.34
49463;BME280;35357;51.722;0.500;2022-07-04T07:38:55;101865.83;;;17.98;53.30
49463;BME280;35357;51.722;0.500;2022-07-04T07:41:22;101875.19;;;17.66;53.22
49463;BME280;35357;51.722;0.500;2022-07-04T07:43:49;101872.74;;;17.48;52.04
49463;BME280;35357;51.722;0.500;2022-07-04T07:46:16;101872.58;;;17.08;54.98
49463;BME280;35357;51.722;0.500;2022-07-04T07:48:44;101862.33;;;16.84;55.22
49463;BME280;35357;51.722;0.500;2022-07-04T07:51:12;101862.67;;;17.51;53.89
49463;BME280;35357;51.722;0.500;2022-07-04T07:53:39;101862.16;;;17.82;53.36
49463;BME280;35357;51.722;0.500;2022-07-04T07:56:07;101868.38;;;18.31;51.12
49463;BME280;35357;51.722;0.500;2022-07-04T07:58:35;101867.58;;;18.29;50.80
49463;BME280;35357;51.722;0.500;2022-07-04T08:01:02;101871.34;;;17.04;51.78
49463;BME280;35357;51.722;0.500;2022-07-04T08:03:30;101876.11;;;18.50;48.35
49463;BME280;35357;51.722;0.500;2022-07-04T08:05:57;101870.53;;;18.18;48.28
49463;BME280;35357;51.722;0.500;2022-07-04T08:08:25;101867.91;;;16.86;49.80
49463;BME280;35357;51.722;0.500;2022-07-04T08:10:52;101867.51;;;18.09;48.56
49463;BME280;35357;51.722;0.500;2022-07-04T08:13:20;101872.49;;;18.18;47.42
49463;BME280;35357;51.722;0.500;2022-07-04T08:15:48;101859.72;;;18.66;46.84
49463;BME280;35357;51.722;0.500;2022-07-04T08:18:15;101858.18;;;19.06;45.88
49463;BME280;35357;51.722;0.500;2022-07-04T08:20:43;101860.06;;;19.17;46.05
49463;BME280;35357;51.722;0.500;2022-07-04T08:23:10;101862.95;;;19.10;45.88
49463;BME280;35357;51.722;0.500;2022-07-04T08:25:37;101855.92;;;19.43;45.34
49463;BME280;35357;51.722;0.500;2022-07-04T08:28:05;101867.92;;;17.83;47.02
49463;BME280;35357;51.722;0.500;2022-07-04T08:30:33;101865.47;;;18.69;44.59
49463;BME280;35357;51.722;0.500;2022-07-04T08:33:00;101867.04;;;18.87;44.16
49463;BME280;35357;51.722;0.500;2022-07-04T08:35:28;101871.94;;;18.69;44.38
49463;BME280;35357;51.722;0.500;2022-07-04T08:37:56;101873.70;;;18.00;45.44
49463;BME280;35357;51.722;0.500;2022-07-04T08:40:24;101874.69;;;17.86;44.83
49463;BME280;35357;51.722;0.500;2022-07-04T08:42:52;101875.30;;;18.27;45.42
49463;BME280;35357;51.722;0.500;2022-07-04T08:45:26;101868.80;;;18.90;43.27
49463;BME280;35357;51.722;0.500;2022-07-04T08:47:59;101872.79;;;17.44;44.97
49463;BME280;35357;51.722;0.500;2022-07-04T08:50:30;101871.41;;;17.22;45.87
49463;BME280;35357;51.722;0.500;2022-07-04T08:53:00;101872.71;;;17.42;45.77
49463;BME280;35357;51.722;0.500;2022-07-04T08:55:29;101863.25;;;17.31;46.06
49463;BME280;35357;51.722;0.500;2022-07-04T08:57:56;101866.35;;;18.33;45.32
49463;BME280;35357;51.722;0.500;2022-07-04T09:00:24;101858.35;;;18.05;45.83
49463;BME280;35357;51.722;0.500;2022-07-04T09:02:52;101853.12;;;19.06;43.91
49463;BME280;35357;51.722;0.500;2022-07-04T09:05:19;101850.75;;;18.79;43.36
49463;BME280;35357;51.722;0.500;2022-07-04T09:07:47;101852.98;;;18.32;43.12
49463;BME280;35357;51.722;0.500;2022-07-04T09:10:16;101853.57;;;17.44;45.07
49463;BME280;35357;51.722;0.500;2022-07-04T09:12:43;101849.41;;;18.85;43.71
49463;BME280;35357;51.722;0.500;2022-07-04T09:15:10;101848.06;;;19.95;41.21
49463;BME280;35357;51.722;0.500;2022-07-04T09:17:37;101847.48;;;19.43;40.40
49463;BME280;35357;51.722;0.500;2022-07-04T09:20:15;101837.29;;;20.68;38.03
49463;BME280;35357;51.722;0.500;2022-07-04T09:22:44;101843.23;;;20.07;37.92
49463;BME280;35357;51.722;0.500;2022-07-04T09:25:12;101844.53;;;19.17;38.96
49463;BME280;35357;51.722;0.500;2022-07-04T09:27:41;101841.70;;;18.69;40.12
49463;BME280;35357;51.722;0.500;2022-07-04T09:30:10;101837.51;;;19.03;39.32
49463;BME280;35357;51.722;0.500;2022-07-04T09:32:39;101832.72;;;19.75;38.81
49463;BME280;35357;51.722;0.500;2022-07-04T09:35:08;101835.66;;;19.40;38.65
49463;BME280;35357;51.722;0.500;2022-07-04T09:37:38;101838.39;;;20.08;38.05
49463;BME280;35357;51.722;0.500;2022-07-04T09:40:08;101840.51;;;21.10;35.83
49463;BME280;35357;51.722;0.500;2022-07-04T09:42:37;101840.29;;;20.13;37.14
49463;BME280;35357;51.722;0.500;2022-07-04T09:45:05;66588.06;;;14.30;81.20
49463;BME280;35357;51.722;0.500;2022-07-04T09:47:33;101840.84;;;20.36;37.55
49463;BME280;35357;51.722;0.500;2022-07-04T09:50:01;101835.36;;;19.70;38.25
49463;BME280;35357;51.722;0.500;2022-07-04T09:52:29;101845.53;;;19.49;38.40
49463;BME280;35357;51.722;0.500;2022-07-04T09:54:59;101845.83;;;19.60;38.37
49463;BME280;35357;51.722;0.500;2022-07-04T09:57:28;101851.06;;;20.02;37.79
49463;BME280;35357;51.722;0.500;2022-07-04T09:59:56;101845.44;;;19.60;37.78
49463;BME280;35357;51.722;0.500;2022-07-04T10:02:23;101853.01;;;19.29;38.49
49463;BME280;35357;51.722;0.500;2022-07-04T10:04:51;101843.88;;;20.37;36.11
49463;BME280;35357;51.722;0.500;2022-07-04T10:07:36;101841.67;;;20.55;36.68
49463;BME280;35357;51.722;0.500;2022-07-04T10:10:30;101837.94;;;19.26;38.33
49463;BME280;35357;51.722;0.500;2022-07-04T10:13:00;101840.20;;;20.41;37.08
49463;BME280;35357;51.722;0.500;2022-07-04T10:15:28;101837.88;;;20.37;36.73
49463;BME280;35357;51.722;0.500;2022-07-04T10:17:55;101831.54;;;21.04;36.42
49463;BME280;35357;51.722;0.500;2022-07-04T10:20:23;101835.09;;;20.16;37.02
49463;BME280;35357;51.722;0.500;2022-07-04T10:22:50;101830.40;;;20.39;37.48
49463;BME280;35357;51.722;0.500;2022-07-04T10:25:18;101825.08;;;21.11;37.08
49463;BME280;35357;51.722;0.500;2022-07-04T10:27:45;101830.20;;;19.81;37.64
49463;BME280;35357;51.722;0.500;2022-07-04T10:30:15;101827.11;;;19.92;37.53
49463;BME280;35357;51.722;0.500;2022-07-04T10:32:44;101828.48;;;19.83;38.25
49463;BME280;35357;51.722;0.500;2022-07-04T10:35:13;101830.88;;;19.81;38.47
49463;BME280;35357;51.722;0.500;2022-07-04T10:38:13;101822.88;;;19.84;38.38
49463;BME280;35357;51.722;0.500;2022-07-04T10:40:43;101828.49;;;19.82;38.48
49463;BME280;35357;51.722;0.500;2022-07-04T10:44:21;101816.68;;;20.61;37.70
49463;BME280;35357;51.722;0.500;2022-07-04T10:46:49;101820.21;;;19.69;38.17
49463;BME280;35357;51.722;0.500;2022-07-04T10:49:20;101819.80;;;19.70;38.80
49463;BME280;35357;51.722;0.500;2022-07-04T10:51:49;101824.69;;;20.58;36.53
49463;BME280;35357;51.722;0.500;2022-07-04T10:54:18;101813.75;;;20.96;36.42
49463;BME280;35357;51.722;0.500;2022-07-04T10:56:48;101812.45;;;21.86;35.60
49463;BME280;35357;51.722;0.500;2022-07-04T10:59:18;101808.28;;;22.20;34.25
49463;BME280;35357;51.722;0.500;2022-07-04T11:01:48;101806.12;;;21.58;34.59
49463;BME280;35357;51.722;0.500;2022-07-04T11:04:53;101806.88;;;21.64;35.23
49463;BME280;35357;51.722;0.500;2022-07-04T11:07:22;101806.53;;;21.78;35.04
49463;BME280;35357;51.722;0.500;2022-07-04T11:10:23;101795.38;;;21.04;36.13
49463;BME280;35357;51.722;0.500;2022-07-04T11:13:22;101800.85;;;20.59;36.76
49463;BME280;35357;51.722;0.500;2022-07-04T11:16:02;101806.88;;;21.41;35.72
49463;BME280;35357;51.722;0.500;2022-07-04T11:18:29;101809.33;;;21.81;34.90
49463;BME280;35357;51.722;0.500;2022-07-04T11:20:57;101806.01;;;20.59;36.13
49463;BME280;35357;51.722;0.500;2022-07-04T11:23:24;101803.55;;;22.70;35.31
49463;BME280;35357;51.722;0.500;2022-07-04T11:25:51;101800.37;;;23.07;33.97
49463;BME280;35357;51.722;0.500;2022-07-04T11:28:19;101802.50;;;22.35;35.30
49463;BME280;35357;51.722;0.500;2022-07-04T11:30:49;101800.56;;;21.82;35.52
49463;BME280;35357;51.722;0.500;2022-07-04T11:33:18;101800.46;;;21.56;35.69
49463;BME280;35357;51.722;0.500;2022-07-04T11:36:01;101799.64;;;20.53;37.42
49463;BME280;35357;51.722;0.500;2022-07-04T11:38:43;101798.00;;;21.68;35.01
49463;BME280;35357;51.722;0.500;2022-07-04T11:41:11;101798.49;;;22.03;35.80
49463;BME280;35357;51.722;0.500;2022-07-04T11:43:38;101801.68;;;21.80;36.49
49463;BME280;35357;51.722;0.500;2022-07-04T11:46:10;101805.92;;;22.80;34.99
49463;BME280;35357;51.722;0.500;2022-07-04T11:48:38;101796.73;;;22.64;34.20
49463;BME280;35357;51.722;0.500;2022-07-04T11:51:16;101794.79;;;23.19;34.21
49463;BME280;35357;51.722;0.500;2022-07-04T11:53:43;101788.23;;;22.45;33.74
49463;BME280;35357;51.722;0.500;2022-07-04T11:56:10;101789.59;;;22.33;35.00
49463;BME280;35357;51.722;0.500;2022-07-04T11:58:39;101792.51;;;22.42;34.11
49463;BME280;35357;51.722;0.500;2022-07-04T12:01:06;101792.32;;;22.93;33.62
49463;BME280;35357;51.722;0.500;2022-07-04T12:03:34;101792.77;;;21.96;34.27
49463;BME280;35357;51.722;0.500;2022-07-04T12:06:02;101790.61;;;21.92;34.01
49463;BME280;35357;51.722;0.500;2022-07-04T12:08:29;101792.15;;;21.56;34.92
49463;BME280;35357;51.722;0.500;2022-07-04T12:10:57;101791.99;;;21.85;35.97
49463;BME280;35357;51.722;0.500;2022-07-04T12:13:24;101790.10;;;21.23;36.17
49463;BME280;35357;51.722;0.500;2022-07-04T12:15:52;101791.61;;;22.28;35.73
49463;BME280;35357;51.722;0.500;2022-07-04T12:18:21;101784.51;;;22.46;34.37
49463;BME280;35357;51.722;0.500;2022-07-04T12:20:50;101787.72;;;21.83;35.29
49463;BME280;35357;51.722;0.500;2022-07-04T12:23:18;101781.36;;;23.02;34.06
49463;BME280;35357;51.722;0.500;2022-07-04T12:25:47;101775.19;;;22.82;34.51
49463;BME280;35357;51.722;0.500;2022-07-04T12:28:16;101781.80;;;21.98;34.97
49463;BME280;35357;51.722;0.500;2022-07-04T12:30:50;101776.35;;;22.21;35.20
49463;BME280;35357;51.722;0.500;2022-07-04T12:33:19;101780.74;;;21.10;36.30
49463;BME280;35357;51.722;0.500;2022-07-04T12:35:48;101782.76;;;21.83;36.43
49463;BME280;35357;51.722;0.500;2022-07-04T12:38:17;101778.79;;;22.06;35.51
49463;BME280;35357;51.722;0.500;2022-07-04T12:41:02;101775.54;;;21.41;36.92
49463;BME280;35357;51.722;0.500;2022-07-04T12:43:45;101781.94;;;21.47;36.23
49463;BME280;35357;51.722;0.500;2022-07-04T12:46:14;101784.76;;;22.31;35.66
49463;BME280;35357;51.722;0.500;2022-07-04T12:48:42;101786.95;;;22.52;35.65
49463;BME280;35357;51.722;0.500;2022-07-04T12:51:12;101792.07;;;21.93;36.12
49463;BME280;35357;51.722;0.500;2022-07-04T12:53:40;101785.93;;;21.81;35.72
49463;BME280;35357;51.722;0.500;2022-07-04T12:56:09;101791.05;;;21.58;36.79
49463;BME280;35357;51.722;0.500;2022-07-04T12:58:37;101788.13;;;21.24;36.77